createdAt,value
2018-11-02T00:01:28.902Z,101144.63
2018-11-02T00:03:59.722Z,101140.33
2018-11-02T00:06:36.211Z,101144.77
2018-11-02T00:09:09.008Z,101147.02
2018-11-02T00:11:41.360Z,101154.69
2018-11-02T00:14:11.452Z,101159.61
2018-11-02T00:16:40.682Z,101160.55
2018-11-02T00:19:10.065Z,101163.20
2018-11-02T00:21:38.676Z,101173.77
2018-11-02T00:24:08.086Z,101167.54
2018-11-02T00:26:37.333Z,101169.06
2018-11-02T00:29:08.808Z,101182.32
2018-11-02T00:31:38.286Z,101182.77
2018-11-02T00:36:56.890Z,101212.28
2018-11-02T00:39:29.503Z,101205.09
2018-11-02T00:42:01.993Z,101225.53
2018-11-02T00:44:32.858Z,101226.30
2018-11-02T00:47:04.729Z,101228.09
2018-11-02T00:49:36.260Z,101231.19
2018-11-02T00:52:07.134Z,101236.55
2018-11-02T00:54:36.697Z,101242.58
2018-11-02T00:57:13.997Z,101249.25
2018-11-02T00:59:45.460Z,101250.56
2018-11-02T01:02:15.799Z,101273.20
2018-11-02T01:04:47.401Z,101279.62
2018-11-02T01:07:18.064Z,101275.78
2018-11-02T01:09:48.653Z,101271.02
2018-11-02T01:12:18.174Z,101279.46
2018-11-02T01:14:49.113Z,101289.27
2018-11-02T01:17:19.800Z,101305.64
2018-11-02T01:19:49.808Z,101306.16
2018-11-02T01:22:18.485Z,101317.37
2018-11-02T01:24:49.218Z,101326.62
2018-11-02T01:27:19.709Z,101336.39
2018-11-02T01:29:48.838Z,101340.84
2018-11-02T01:32:17.451Z,101336.62
2018-11-02T01:34:46.156Z,101345.36
2018-11-02T01:37:17.476Z,101351.58
2018-11-02T01:39:47.293Z,101356.66
2018-11-02T01:42:18.287Z,101364.11
2018-11-02T01:44:47.888Z,101376.63
2018-11-02T01:47:16.864Z,101378.84
2018-11-02T01:49:48.366Z,101386.92
2018-11-02T01:52:18.176Z,101389.94
2018-11-02T01:54:50.388Z,101399.69
2018-11-02T01:57:20.074Z,101409.83
2018-11-02T02:02:28.925Z,101420.15
2018-11-02T02:04:58.766Z,101425.38
2018-11-02T02:07:27.322Z,101424.91
2018-11-02T02:09:57.676Z,101432.70
2018-11-02T02:12:26.256Z,101435.73
2018-11-02T02:14:58.208Z,101435.12
2018-11-02T02:17:28.882Z,101444.11
2018-11-02T02:20:01.981Z,101446.14
2018-11-02T02:22:30.531Z,101457.20
2018-11-02T02:25:00.566Z,101461.42
2018-11-02T02:27:35.551Z,101463.67
2018-11-02T02:30:06.271Z,101475.89
2018-11-02T02:32:36.103Z,101473.73
2018-11-02T02:35:05.761Z,101477.36
2018-11-02T02:37:37.046Z,101485.98
2018-11-02T02:40:09.119Z,101491.41
2018-11-02T02:42:38.680Z,101500.97
2018-11-02T02:45:09.435Z,101501.35
2018-11-02T02:47:39.651Z,101497.25
2018-11-02T02:50:11.969Z,101502.77
2018-11-02T02:52:41.778Z,101511.31
2018-11-02T02:55:11.822Z,101509.81
2018-11-02T02:57:41.224Z,101522.69
2018-11-02T03:00:13.175Z,101526.73
2018-11-02T03:02:42.966Z,101526.50
2018-11-02T03:05:12.621Z,101534.18
2018-11-02T03:07:41.893Z,101547.80
2018-11-02T03:10:12.168Z,101558.34
2018-11-02T03:12:40.702Z,101558.13
2018-11-02T03:15:09.975Z,101560.33
2018-11-02T03:17:38.795Z,101566.85
2018-11-02T03:20:10.616Z,101570.81
2018-11-02T03:22:41.149Z,101570.81
2018-11-02T03:25:11.496Z,101577.97
2018-11-02T03:27:41.995Z,101586.45
2018-11-02T03:30:12.065Z,101587.02
2018-11-02T03:32:46.220Z,101593.05
2018-11-02T03:35:14.996Z,101601.64
2018-11-02T03:37:45.436Z,101603.98
2018-11-02T03:40:14.850Z,101616.65
2018-11-02T03:42:43.344Z,101621.88
2018-11-02T03:45:13.412Z,101629.73
2018-11-02T03:47:43.096Z,101629.55
2018-11-02T03:50:12.662Z,101641.80
2018-11-02T03:52:42.115Z,101646.75
2018-11-02T03:55:12.872Z,101651.52
2018-11-02T03:57:41.844Z,101654.74
2018-11-02T04:00:10.980Z,101661.58
2018-11-02T04:02:40.389Z,101664.37
2018-11-02T04:05:11.886Z,101674.37
2018-11-02T04:07:40.721Z,101681.67
2018-11-02T04:10:11.418Z,101690.27
2018-11-02T04:12:41.916Z,101699.58
2018-11-02T04:15:11.998Z,101697.09
2018-11-02T04:17:41.372Z,101709.80
2018-11-02T04:20:12.464Z,101710.11
2018-11-02T04:22:42.188Z,101711.02
2018-11-02T04:25:16.515Z,101711.41
2018-11-02T04:27:48.991Z,101719.08
2018-11-02T04:30:24.796Z,101725.83
2018-11-02T04:32:55.700Z,101726.40
2018-11-02T04:35:27.747Z,101725.02
2018-11-02T04:38:03.092Z,101730.23
2018-11-02T04:40:36.103Z,101741.23
2018-11-02T04:43:07.435Z,101744.91
2018-11-02T04:45:42.412Z,101748.28
2018-11-02T04:48:13.075Z,101755.12
2018-11-02T04:50:43.055Z,101758.59
2018-11-02T04:53:14.625Z,101762.23
2018-11-02T04:55:46.741Z,101763.83
2018-11-02T04:58:15.969Z,101771.77
2018-11-02T05:00:47.436Z,101776.42
2018-11-02T05:03:19.295Z,101776.19
2018-11-02T05:05:48.406Z,101783.72
2018-11-02T05:08:18.898Z,101794.47
2018-11-02T05:10:50.573Z,101804.89
2018-11-02T05:13:21.397Z,101809.23
2018-11-02T05:15:51.117Z,101816.14
2018-11-02T05:18:23.205Z,101816.66
2018-11-02T05:20:55.381Z,101819.47
2018-11-02T05:23:28.425Z,101823.28
2018-11-02T05:25:59.552Z,101826.53
2018-11-02T05:28:29.178Z,101828.63
2018-11-02T05:30:58.750Z,101831.36
2018-11-02T05:33:33.212Z,101834.05
2018-11-02T05:36:05.507Z,101843.63
2018-11-02T05:41:19.406Z,101847.77
2018-11-02T05:43:49.093Z,101841.81
2018-11-02T05:46:19.164Z,101854.25
2018-11-02T05:48:48.017Z,101859.25
2018-11-02T05:51:17.778Z,101864.47
2018-11-02T05:53:46.692Z,101869.54
2018-11-02T05:58:54.491Z,101884.55
2018-11-02T06:01:33.794Z,101884.96
2018-11-02T06:04:04.713Z,101901.49
2018-11-02T06:06:34.306Z,101907.08
2018-11-02T06:09:08.822Z,101907.77
2018-11-02T06:11:43.384Z,101910.23
2018-11-02T06:14:13.564Z,101915.17
2018-11-02T06:16:44.744Z,101916.27
2018-11-02T06:19:17.013Z,101922.58
2018-11-02T06:21:47.512Z,101929.85
2018-11-02T06:24:18.429Z,101930.68
2018-11-02T06:26:48.633Z,101933.24
2018-11-02T06:29:22.028Z,101935.55
2018-11-02T06:31:52.096Z,101940.97
2018-11-02T06:34:22.695Z,101954.02
2018-11-02T06:36:53.149Z,101969.32
2018-11-02T06:39:25.023Z,101967.53
2018-11-02T06:41:53.869Z,101982.87
2018-11-02T06:44:28.042Z,101984.39
2018-11-02T06:46:57.620Z,101987.48
2018-11-02T06:49:26.451Z,101987.11
2018-11-02T06:51:56.079Z,101995.53
2018-11-02T06:54:26.569Z,102003.59
2018-11-02T06:56:57.343Z,102007.14
2018-11-02T06:59:28.468Z,102014.61
2018-11-02T07:01:59.646Z,102026.89
2018-11-02T07:04:32.340Z,102035.59
2018-11-02T07:07:02.270Z,102037.98
2018-11-02T07:09:33.252Z,102045.80
2018-11-02T07:12:01.854Z,102049.99
2018-11-02T07:14:32.072Z,102056.30
2018-11-02T07:17:03.994Z,102065.86
2018-11-02T07:19:37.882Z,102072.80
2018-11-02T07:22:09.765Z,102077.98
2018-11-02T07:24:41.875Z,102081.20
2018-11-02T07:27:16.156Z,102085.97
2018-11-02T07:29:46.553Z,102093.08
2018-11-02T07:32:18.803Z,102096.03
2018-11-02T07:34:48.762Z,102100.45
2018-11-02T07:37:22.406Z,102102.18
2018-11-02T07:39:53.408Z,102106.32
2018-11-02T07:42:23.773Z,102118.28
2018-11-02T07:44:54.128Z,102116.19
2018-11-02T07:47:25.054Z,102132.00
2018-11-02T07:49:54.045Z,102130.08
2018-11-02T07:52:24.077Z,102133.00
2018-11-02T07:54:55.792Z,102146.06
2018-11-02T07:57:25.557Z,102157.02
2018-11-02T07:59:55.189Z,102166.15
2018-11-02T08:02:25.889Z,102165.69
2018-11-02T08:04:57.592Z,102170.88
2018-11-02T08:07:27.507Z,102183.88
2018-11-02T08:09:58.182Z,102185.14
2018-11-02T08:12:27.037Z,102180.19
2018-11-02T08:14:57.476Z,102190.97
2018-11-02T08:17:29.260Z,102112.95
2018-11-02T08:20:02.052Z,102196.58
2018-11-02T08:22:33.879Z,102205.17
2018-11-02T08:25:05.473Z,102199.64
2018-11-02T08:27:34.596Z,102197.77
2018-11-02T08:30:07.880Z,102198.34
2018-11-02T08:32:38.409Z,102209.47
2018-11-02T08:35:11.711Z,102204.70
2018-11-02T08:37:43.152Z,102212.25
2018-11-02T08:40:13.835Z,102216.95
2018-11-02T08:42:43.507Z,102216.83
2018-11-02T08:45:14.188Z,102216.09
2018-11-02T08:47:45.747Z,102220.22
2018-11-02T08:50:15.835Z,102216.23
2018-11-02T08:52:45.301Z,102219.39
2018-11-02T08:55:15.753Z,102224.31
2018-11-02T08:57:46.280Z,102231.14
2018-11-02T09:00:15.897Z,102234.67
2018-11-02T09:02:46.857Z,102235.86
2018-11-02T09:05:20.317Z,102239.49
2018-11-02T09:07:57.335Z,102237.59
2018-11-02T09:10:28.865Z,102253.93
2018-11-02T09:13:01.004Z,102246.23
2018-11-02T09:15:33.815Z,102253.97
2018-11-02T09:18:04.902Z,102261.11
2018-11-02T09:20:35.425Z,102263.55
2018-11-02T09:23:11.974Z,102270.34
2018-11-02T09:25:44.748Z,102269.45
2018-11-02T09:28:15.960Z,102270.44
2018-11-02T09:30:44.971Z,102272.88
2018-11-02T09:33:14.415Z,102273.41
2018-11-02T09:35:43.233Z,102277.49
2018-11-02T09:38:13.235Z,102276.18
2018-11-02T09:40:42.925Z,102278.98
2018-11-02T09:43:12.456Z,102285.30
2018-11-02T09:45:43.138Z,102285.26
2018-11-02T09:48:13.360Z,102289.20
2018-11-02T09:50:42.007Z,102280.77
2018-11-02T09:53:12.775Z,102285.41
2018-11-02T09:55:44.879Z,102289.32
2018-11-02T09:58:15.547Z,102295.66
2018-11-02T10:00:47.170Z,102290.42
2018-11-02T10:03:17.298Z,102289.47
2018-11-02T10:05:47.067Z,102291.58
2018-11-02T10:08:16.252Z,102290.09
2018-11-02T10:10:47.159Z,102294.19
2018-11-02T10:13:18.569Z,102298.02
2018-11-02T10:15:47.335Z,102299.44
2018-11-02T10:18:15.996Z,102309.78
2018-11-02T10:20:45.185Z,102308.63
2018-11-02T10:23:15.887Z,102316.80
2018-11-02T10:25:47.019Z,102317.58
2018-11-02T10:28:15.906Z,102321.20
2018-11-02T10:30:44.825Z,102314.95
2018-11-02T10:33:16.753Z,102327.80
2018-11-02T10:35:45.758Z,102330.67
2018-11-02T10:38:14.392Z,102339.11
2018-11-02T10:40:49.348Z,102339.91
2018-11-02T10:43:24.179Z,102337.03
2018-11-02T10:45:57.844Z,102343.44
2018-11-02T10:48:29.576Z,102347.91
2018-11-02T10:51:02.752Z,102354.23
2018-11-02T10:53:33.676Z,102349.40
2018-11-02T10:56:04.257Z,102343.42
2018-11-02T10:58:33.817Z,102345.14
2018-11-02T11:01:08.461Z,102357.85
2018-11-02T11:03:38.974Z,102358.98
2018-11-02T11:08:48.815Z,102363.31
2018-11-02T11:11:19.501Z,102371.14
2018-11-02T11:13:48.836Z,102370.78
2018-11-02T11:16:17.991Z,102376.56
2018-11-02T11:18:48.104Z,102375.48
2018-11-02T11:21:19.005Z,102378.30
2018-11-02T11:23:48.754Z,102381.75
2018-11-02T11:26:20.147Z,102383.55
2018-11-02T11:28:50.210Z,102354.33
2018-11-02T11:31:19.774Z,102378.66
2018-11-02T11:33:48.774Z,102383.02
2018-11-02T11:36:21.877Z,102384.62
2018-11-02T11:38:51.163Z,102379.66
2018-11-02T11:41:27.579Z,102385.08
2018-11-02T11:43:56.431Z,102382.89
2018-11-02T11:46:27.513Z,102396.89
2018-11-02T11:48:58.572Z,102391.77
2018-11-02T11:51:28.132Z,102405.23
2018-11-02T11:53:57.405Z,102398.59
2018-11-02T11:56:26.212Z,102400.26
2018-11-02T11:58:55.413Z,102415.23
2018-11-02T12:01:24.882Z,102373.72
2018-11-02T12:03:54.380Z,102404.56
2018-11-02T12:06:24.615Z,102411.12
2018-11-02T12:08:53.431Z,102402.14
2018-11-02T12:11:21.945Z,102408.90
2018-11-02T12:13:51.754Z,102412.73
2018-11-02T12:16:21.067Z,102409.09
2018-11-02T12:18:51.336Z,102416.83
2018-11-02T12:21:21.258Z,102412.54
2018-11-02T12:23:50.180Z,102414.80
2018-11-02T12:26:23.687Z,102423.41
2018-11-02T12:28:53.540Z,102427.58
2018-11-02T12:31:23.719Z,102423.64
2018-11-02T12:33:53.564Z,102423.41
2018-11-02T12:36:24.492Z,102420.75
2018-11-02T12:39:01.961Z,102430.30
2018-11-02T12:41:31.941Z,102435.15
2018-11-02T12:44:05.228Z,102437.68
2018-11-02T12:46:36.030Z,102438.42
2018-11-02T12:49:06.384Z,102441.38
2018-11-02T12:51:35.088Z,102444.13
2018-11-02T12:54:04.903Z,102442.75
2018-11-02T12:56:34.916Z,102444.84
2018-11-02T12:59:04.848Z,102448.67
2018-11-02T13:01:40.776Z,102453.12
2018-11-02T13:04:09.439Z,102464.56
2018-11-02T13:06:41.592Z,102469.08
2018-11-02T13:09:17.092Z,102474.25
2018-11-02T13:11:45.698Z,102482.66
2018-11-02T13:14:21.764Z,102486.38
2018-11-02T13:16:50.459Z,102495.20
2018-11-02T13:19:19.696Z,102492.17
2018-11-02T13:21:48.463Z,102495.63
2018-11-02T13:24:17.251Z,102500.23
2018-11-02T13:26:47.485Z,102499.85
2018-11-02T13:29:16.195Z,102507.73
2018-11-02T13:31:45.430Z,102512.32
2018-11-02T13:34:16.340Z,102524.44
2018-11-02T13:36:46.421Z,102526.28
2018-11-02T13:39:15.952Z,102526.70
2018-11-02T13:41:46.593Z,102537.66
2018-11-02T13:44:18.663Z,102533.68
2018-11-02T13:46:50.341Z,102548.98
2018-11-02T13:49:20.057Z,102552.04
2018-11-02T13:51:51.276Z,102554.05
2018-11-02T13:54:22.892Z,102558.55
2018-11-02T13:56:53.641Z,102560.92
2018-11-02T13:59:22.930Z,102566.69
2018-11-02T14:01:53.082Z,102574.84
2018-11-02T14:04:23.143Z,102572.19
2018-11-02T14:06:52.703Z,102572.17
2018-11-02T14:09:22.163Z,102579.34
2018-11-02T14:11:51.869Z,102583.52
2018-11-02T14:14:20.477Z,102581.70
2018-11-02T14:16:52.022Z,102591.12
2018-11-02T14:19:26.136Z,102583.52
2018-11-02T14:21:56.369Z,102585.20
2018-11-02T14:24:26.104Z,102587.75
2018-11-02T14:26:54.810Z,102588.60
2018-11-02T14:29:24.301Z,102588.49
2018-11-02T14:31:54.242Z,102592.30
2018-11-02T14:34:24.016Z,102594.77
2018-11-02T14:36:53.965Z,102600.30
2018-11-02T14:39:24.307Z,102606.88
2018-11-02T14:41:54.295Z,102612.39
2018-11-02T14:44:24.414Z,102618.86
2018-11-02T14:46:55.025Z,102623.81
2018-11-02T14:49:25.189Z,102627.73
2018-11-02T14:51:55.514Z,102632.13
2018-11-02T14:54:26.416Z,102637.75
2018-11-02T14:56:56.901Z,102636.86
2018-11-02T14:59:28.868Z,102641.08
2018-11-02T15:01:57.590Z,102645.98
2018-11-02T15:04:28.796Z,102651.72
2018-11-02T15:06:58.467Z,102650.08
2018-11-02T15:09:27.194Z,102643.87
2018-11-02T15:11:57.361Z,102651.73
2018-11-02T15:14:27.445Z,102658.24
2018-11-02T15:16:58.811Z,102656.05
2018-11-02T15:19:30.241Z,102661.48
2018-11-02T15:22:02.491Z,102662.34
2018-11-02T15:24:32.687Z,102665.38
2018-11-02T15:27:05.240Z,102672.28
2018-11-02T15:29:36.983Z,102674.09
2018-11-02T15:32:06.913Z,102672.73
2018-11-02T15:34:37.844Z,102674.11
2018-11-02T15:37:08.717Z,102674.67
2018-11-02T15:39:37.432Z,102683.79
2018-11-02T15:42:07.425Z,102677.05
2018-11-02T15:44:37.776Z,102687.48
2018-11-02T15:47:07.688Z,102683.95
2018-11-02T15:49:36.512Z,102685.80
2018-11-02T15:52:07.496Z,102690.45
2018-11-02T15:54:37.464Z,102692.95
2018-11-02T15:57:06.520Z,102696.48
2018-11-02T15:59:37.437Z,102702.05
2018-11-02T16:02:06.835Z,102707.80
2018-11-02T16:04:35.523Z,102707.17
2018-11-02T16:07:07.254Z,102709.92
2018-11-02T16:09:42.643Z,102708.77
2018-11-02T16:12:15.074Z,102704.59
2018-11-02T16:14:45.481Z,102715.89
2018-11-02T16:17:15.709Z,102715.50
2018-11-02T16:19:45.366Z,102730.64
2018-11-02T16:22:14.257Z,102724.95
2018-11-02T16:24:43.413Z,102738.03
2018-11-02T16:27:12.977Z,102740.94
2018-11-02T16:29:46.904Z,102734.77
2018-11-02T16:32:16.756Z,102747.97
2018-11-02T16:34:45.474Z,102745.97
2018-11-02T16:37:15.145Z,102758.70
2018-11-02T16:39:46.493Z,102761.80
2018-11-02T16:42:15.299Z,102765.84
2018-11-02T16:44:46.853Z,102768.61
2018-11-02T16:47:16.660Z,102766.11
2018-11-02T16:49:46.768Z,102781.53
2018-11-02T16:52:18.081Z,102786.06
2018-11-02T16:54:47.984Z,102786.19
2018-11-02T16:57:19.863Z,102788.48
2018-11-02T16:59:49.352Z,102790.34
2018-11-02T17:02:18.817Z,102793.88
2018-11-02T17:04:47.547Z,102800.09
2018-11-02T17:07:17.860Z,102802.81
2018-11-02T17:09:48.095Z,102807.73
2018-11-02T17:12:18.319Z,102806.02
2018-11-02T17:14:50.926Z,102811.04
2018-11-02T17:17:20.449Z,102817.52
2018-11-02T17:19:53.055Z,102816.80
2018-11-02T17:22:24.715Z,102817.64
2018-11-02T17:24:55.302Z,102819.00
2018-11-02T17:27:24.145Z,102822.05
2018-11-02T17:29:54.408Z,102672.69
2018-11-02T17:32:27.530Z,102828.13
2018-11-02T17:34:58.730Z,102829.09
2018-11-02T17:37:29.955Z,102834.33
2018-11-02T17:40:01.475Z,102841.84
2018-11-02T17:42:32.916Z,102843.16
2018-11-02T17:45:01.694Z,102842.39
2018-11-02T17:47:31.538Z,102854.16
2018-11-02T17:50:03.426Z,102856.39
2018-11-02T17:52:32.046Z,102865.53
2018-11-02T17:55:06.665Z,102865.50
2018-11-02T17:57:37.403Z,102866.45
2018-11-02T18:00:12.062Z,102870.81
2018-11-02T18:02:46.345Z,102878.21
2018-11-02T18:05:18.320Z,102873.05
2018-11-02T18:07:47.882Z,102873.05
2018-11-02T18:10:18.802Z,102875.30
2018-11-02T18:12:49.209Z,102888.33
2018-11-02T18:15:18.195Z,102891.35
2018-11-02T18:17:47.891Z,102894.02
2018-11-02T18:20:19.278Z,102906.20
2018-11-02T18:22:48.367Z,102904.48
2018-11-02T18:25:17.252Z,102903.20
2018-11-02T18:27:45.934Z,102902.80
2018-11-02T18:30:14.353Z,102901.93
2018-11-02T18:32:43.048Z,102920.20
2018-11-02T18:35:11.467Z,102925.42
2018-11-02T18:37:40.878Z,102928.05
2018-11-02T18:40:12.646Z,102932.39
2018-11-02T18:42:41.368Z,102939.80
2018-11-02T18:45:14.313Z,102941.13
2018-11-02T18:47:42.898Z,102945.02
2018-11-02T18:50:12.418Z,102943.73
2018-11-02T18:52:40.875Z,102954.58
2018-11-02T18:55:11.303Z,102955.87
2018-11-02T18:57:39.940Z,102958.94
2018-11-02T19:00:10.177Z,102962.83
2018-11-02T19:02:38.708Z,102956.34
2018-11-02T19:05:10.601Z,102958.06
2018-11-02T19:07:38.946Z,102959.40
2018-11-02T19:10:08.596Z,102965.05
2018-11-02T19:12:39.143Z,102963.33
2018-11-02T19:15:11.102Z,102958.11
2018-11-02T19:17:39.748Z,102962.88
2018-11-02T19:20:10.690Z,102954.23
2018-11-02T19:22:39.092Z,102961.17
2018-11-02T19:25:09.806Z,102958.56
2018-11-02T19:27:38.257Z,102963.78
2018-11-02T19:30:09.276Z,102965.08
2018-11-02T19:32:38.108Z,102955.97
2018-11-02T19:35:07.567Z,102964.63
2018-11-02T19:37:35.967Z,102962.03
2018-11-02T19:40:10.199Z,102958.16
2018-11-02T19:42:38.744Z,102954.70
2018-11-02T19:45:08.455Z,102965.09
2018-11-02T19:47:42.643Z,102964.20
2018-11-02T19:50:13.804Z,102962.91
2018-11-02T19:52:43.182Z,102957.27
2018-11-02T19:55:12.479Z,102964.63
2018-11-02T19:57:42.209Z,102965.52
2018-11-02T20:00:12.873Z,102975.03
2018-11-02T20:02:42.005Z,102983.72
2018-11-02T20:05:13.043Z,102984.14
2018-11-02T20:07:42.325Z,102981.53
2018-11-02T20:10:12.107Z,102987.19
2018-11-02T20:12:43.639Z,102981.09
2018-11-02T20:15:14.092Z,102987.19
2018-11-02T20:17:45.311Z,103000.16
2018-11-02T20:20:14.895Z,103004.52
2018-11-02T20:22:45.074Z,103006.67
2018-11-02T20:25:15.424Z,102997.55
2018-11-02T20:27:44.053Z,103002.31
2018-11-02T20:30:15.153Z,103004.47
2018-11-02T20:32:43.679Z,102998.84
2018-11-02T20:35:12.250Z,103004.45
2018-11-02T20:37:43.520Z,103011.39
2018-11-02T20:40:15.556Z,103016.58
2018-11-02T20:42:44.749Z,103020.03
2018-11-02T20:45:13.535Z,103030.84
2018-11-02T20:47:52.978Z,103025.61
2018-11-02T20:50:22.352Z,103023.02
2018-11-02T20:52:51.843Z,103018.27
2018-11-02T20:55:20.379Z,103018.70
2018-11-02T20:57:48.807Z,103023.02
2018-11-02T21:00:19.806Z,103026.05
2018-11-02T21:02:53.821Z,103020.86
2018-11-02T21:05:22.562Z,103020.38
2018-11-02T21:07:51.848Z,103032.06
2018-11-02T21:10:21.171Z,103031.20
2018-11-02T21:12:49.705Z,103033.36
2018-11-02T21:15:20.407Z,103047.18
2018-11-02T21:17:49.409Z,103047.14
2018-11-02T21:20:19.284Z,103054.92
2018-11-02T21:22:47.820Z,103054.33
2018-11-02T21:25:16.590Z,103060.36
2018-11-02T21:27:45.812Z,103064.78
2018-11-02T21:30:17.532Z,103066.93
2018-11-02T21:32:47.000Z,103067.83
2018-11-02T21:35:18.202Z,103072.12
2018-11-02T21:37:48.001Z,103080.81
2018-11-02T21:40:18.424Z,103078.68
2018-11-02T21:42:46.990Z,102994.45
2018-11-02T21:45:17.585Z,103067.78
2018-11-02T21:47:46.243Z,103068.16
2018-11-02T21:50:15.223Z,103070.36
2018-11-02T21:52:48.306Z,103079.00
2018-11-02T21:55:17.150Z,103074.26
2018-11-02T21:57:46.816Z,103082.44
2018-11-02T22:02:50.237Z,103088.46
2018-11-02T22:05:19.066Z,103077.68
2018-11-02T22:07:48.784Z,103091.03
2018-11-02T22:10:19.306Z,103090.58
2018-11-02T22:12:47.659Z,103095.78
2018-11-02T22:15:16.551Z,103095.38
2018-11-02T22:17:45.067Z,103092.59
2018-11-02T22:20:14.508Z,103091.23
2018-11-02T22:22:43.469Z,103089.63
2018-11-02T22:25:12.847Z,103087.97
2018-11-02T22:27:41.232Z,103091.42
2018-11-02T22:30:17.053Z,103087.09
2018-11-02T22:32:45.389Z,103082.31
2018-11-02T22:35:14.679Z,103086.14
2018-11-02T22:37:43.057Z,103086.98
2018-11-02T22:40:12.363Z,103089.56
2018-11-02T22:42:41.440Z,103088.62
2018-11-02T22:45:11.313Z,103093.33
2018-11-02T22:47:40.074Z,103095.51
2018-11-02T22:50:08.867Z,103090.33
2018-11-02T22:52:37.396Z,103092.52
2018-11-02T22:55:07.092Z,103096.80
2018-11-02T22:57:35.615Z,103093.29
2018-11-02T23:00:08.124Z,103096.78
2018-11-02T23:02:36.855Z,103101.97
2018-11-02T23:05:05.877Z,103096.28
2018-11-02T23:07:34.477Z,103089.33
2018-11-02T23:10:03.567Z,103088.16
2018-11-02T23:12:31.900Z,103091.16
2018-11-02T23:15:00.900Z,103100.66
2018-11-02T23:17:29.259Z,103099.41
2018-11-02T23:19:57.618Z,103098.47
2018-11-02T23:22:26.848Z,103098.93
2018-11-02T23:24:56.235Z,103093.69
2018-11-02T23:27:24.577Z,103092.76
2018-11-02T23:29:53.145Z,103099.36
2018-11-02T23:32:21.463Z,103095.51
2018-11-02T23:34:49.786Z,103099.45
2018-11-02T23:37:18.332Z,103096.42
2018-11-02T23:39:46.674Z,103094.21
2018-11-02T23:42:15.000Z,103085.61
2018-11-02T23:44:43.445Z,103087.81
2018-11-02T23:47:11.837Z,103091.81
2018-11-02T23:49:40.311Z,103091.44
2018-11-02T23:52:08.720Z,103091.50
2018-11-02T23:54:37.108Z,103094.11
2018-11-02T23:57:05.969Z,103091.95
2018-11-02T23:59:34.392Z,103083.72
